createdAt,value
2019-01-03T00:00:16.069Z,69.5
2019-01-03T00:01:16.128Z,69.3
2019-01-03T00:02:16.410Z,69.5
2019-01-03T00:03:16.675Z,69.8
2019-01-03T00:04:15.938Z,68.9
2019-01-03T00:05:16.234Z,68.9
2019-01-03T00:06:16.496Z,69.2
2019-01-03T00:07:16.763Z,68.7
2019-01-03T00:08:16.030Z,68.7
2019-01-03T00:09:16.294Z,68.8
2019-01-03T00:10:16.574Z,68.5
2019-01-03T00:11:16.610Z,68.7
2019-01-03T00:12:15.880Z,68.7
2019-01-03T00:13:16.151Z,68.8
2019-01-03T00:14:16.418Z,69.2
2019-01-03T00:15:16.682Z,69.2
2019-01-03T00:16:15.951Z,68.8
2019-01-03T00:17:16.213Z,68.8
2019-01-03T00:18:16.482Z,69.2
2019-01-03T00:19:16.747Z,69.2
2019-01-03T00:20:16.019Z,69.1
2019-01-03T00:21:16.272Z,69.4
2019-01-03T00:22:16.544Z,68.9
2019-01-03T00:23:16.805Z,68.8
2019-01-03T00:24:16.073Z,68.6
2019-01-03T00:25:16.350Z,69.1
2019-01-03T00:26:16.628Z,68.6
2019-01-03T00:27:15.897Z,68.2
2019-01-03T00:28:16.219Z,69.0
2019-01-03T00:29:16.499Z,68.6
2019-01-03T00:30:16.779Z,68.9
2019-01-03T00:31:16.814Z,68.6
2019-01-03T00:32:16.087Z,68.4
2019-01-03T00:33:16.348Z,69.1
2019-01-03T00:34:16.655Z,68.7
2019-01-03T00:35:15.924Z,69.0
2019-01-03T00:36:16.187Z,69.1
2019-01-03T00:37:16.459Z,69.5
2019-01-03T00:38:16.720Z,69.3
2019-01-03T00:39:16.038Z,68.9
2019-01-03T00:40:16.318Z,68.9
2019-01-03T00:41:16.347Z,69.0
2019-01-03T00:42:16.882Z,69.2
2019-01-03T00:43:16.137Z,69.2
2019-01-03T00:44:16.396Z,69.2
2019-01-03T00:45:16.664Z,69.4
2019-01-03T00:46:15.938Z,69.8
2019-01-03T00:47:16.220Z,70.1
2019-01-03T00:48:16.478Z,70.3
2019-01-03T00:49:16.740Z,69.7
2019-01-03T00:50:16.007Z,69.9
2019-01-03T00:51:16.048Z,69.5
2019-01-03T00:52:16.315Z,69.7
2019-01-03T00:53:16.581Z,69.8
2019-01-03T00:54:15.847Z,69.3
2019-01-03T00:55:16.112Z,69.7
2019-01-03T00:56:16.381Z,69.7
2019-01-03T00:57:16.641Z,69.4
2019-01-03T00:58:15.908Z,69.6
2019-01-03T00:59:16.178Z,69.5
2019-01-03T01:00:16.441Z,71.1
2019-01-03T01:01:16.495Z,69.7
2019-01-03T01:02:16.756Z,69.7
2019-01-03T01:03:16.018Z,69.9
2019-01-03T01:04:16.284Z,69.6
2019-01-03T01:05:16.547Z,70.2
2019-01-03T01:06:16.814Z,70.7
2019-01-03T01:07:16.078Z,70.5
2019-01-03T01:08:16.336Z,70.0
2019-01-03T01:09:16.605Z,70.3
2019-01-03T01:10:15.875Z,70.6
2019-01-03T01:11:15.925Z,70.1
2019-01-03T01:12:16.192Z,70.2
2019-01-03T01:13:16.460Z,70.2
2019-01-03T01:14:16.715Z,70.2
2019-01-03T01:15:15.983Z,70.0
2019-01-03T01:16:16.243Z,70.3
2019-01-03T01:17:16.503Z,70.2
2019-01-03T01:18:16.754Z,70.5
2019-01-03T01:19:16.033Z,71.3
2019-01-03T01:20:16.296Z,71.5
2019-01-03T01:21:16.346Z,71.7
2019-01-03T01:22:16.607Z,71.1
2019-01-03T01:23:15.871Z,71.8
2019-01-03T01:24:16.138Z,71.2
2019-01-03T01:25:16.398Z,71.2
2019-01-03T01:26:16.665Z,71.2
2019-01-03T01:27:15.923Z,71.2
2019-01-03T01:28:16.188Z,71.2
2019-01-03T01:29:16.452Z,71.3
2019-01-03T01:30:16.716Z,71.5
2019-01-03T01:31:16.771Z,72.5
2019-01-03T01:32:16.040Z,72.2
2019-01-03T01:33:16.303Z,72.2
2019-01-03T01:34:16.559Z,71.5
2019-01-03T01:35:16.838Z,71.6
2019-01-03T01:36:16.098Z,71.7
2019-01-03T01:37:16.667Z,71.8
2019-01-03T01:38:15.932Z,71.7
2019-01-03T01:39:16.197Z,71.6
2019-01-03T01:40:16.470Z,72.4
2019-01-03T01:41:16.555Z,72.0
2019-01-03T01:42:16.819Z,72.2
2019-01-03T01:43:16.090Z,72.2
2019-01-03T01:44:16.355Z,72.2
2019-01-03T01:45:16.621Z,72.3
2019-01-03T01:46:15.886Z,72.2
2019-01-03T01:47:16.160Z,72.2
2019-01-03T01:48:16.425Z,72.2
2019-01-03T01:49:16.697Z,72.5
2019-01-03T01:50:15.977Z,72.2
2019-01-03T01:51:16.007Z,72.8
2019-01-03T01:52:16.285Z,72.8
2019-01-03T01:53:16.548Z,72.6
2019-01-03T01:54:16.830Z,72.2
2019-01-03T01:55:16.106Z,72.7
2019-01-03T01:56:16.367Z,72.5
2019-01-03T01:57:16.633Z,72.7
2019-01-03T01:58:15.909Z,72.5
2019-01-03T01:59:16.163Z,72.5
2019-01-03T02:00:16.421Z,72.8
2019-01-03T02:01:16.487Z,72.7
2019-01-03T02:02:16.748Z,72.7
2019-01-03T02:03:16.019Z,72.7
2019-01-03T02:04:16.294Z,72.8
2019-01-03T02:05:16.567Z,72.5
2019-01-03T02:06:16.841Z,72.8
2019-01-03T02:07:16.112Z,72.8
2019-01-03T02:08:16.382Z,73.9
2019-01-03T02:09:16.639Z,72.9
2019-01-03T02:10:15.928Z,73.2
2019-01-03T02:11:15.968Z,73.0
2019-01-03T02:12:16.232Z,73.3
2019-01-03T02:13:16.489Z,73.2
2019-01-03T02:14:16.759Z,73.1
2019-01-03T02:15:16.031Z,73.0
2019-01-03T02:16:16.285Z,73.1
2019-01-03T02:17:16.562Z,73.0
2019-01-03T02:18:16.834Z,73.5
2019-01-03T02:19:16.108Z,73.2
2019-01-03T02:20:16.378Z,73.3
2019-01-03T02:21:16.520Z,73.2
2019-01-03T02:22:16.780Z,73.1
2019-01-03T02:23:16.051Z,73.3
2019-01-03T02:24:16.320Z,73.2
2019-01-03T02:25:16.609Z,73.5
2019-01-03T02:26:15.866Z,73.3
2019-01-03T02:27:16.133Z,73.1
2019-01-03T02:28:16.395Z,73.0
2019-01-03T02:29:16.652Z,73.1
2019-01-03T02:30:15.925Z,73.4
2019-01-03T02:31:15.956Z,73.3
2019-01-03T02:32:16.223Z,73.4
2019-01-03T02:33:16.495Z,73.8
2019-01-03T02:34:16.764Z,73.4
2019-01-03T02:35:16.044Z,73.8
2019-01-03T02:36:16.310Z,73.6
2019-01-03T02:37:16.576Z,73.7
2019-01-03T02:38:15.836Z,74.1
2019-01-03T02:39:16.093Z,74.4
2019-01-03T02:40:16.379Z,74.3
2019-01-03T02:41:16.421Z,73.8
2019-01-03T02:42:16.684Z,73.7
2019-01-03T02:43:15.938Z,74.0
2019-01-03T02:44:16.209Z,74.2
2019-01-03T02:45:16.492Z,74.1
2019-01-03T02:46:16.761Z,73.9
2019-01-03T02:47:16.038Z,75.0
2019-01-03T02:48:16.320Z,74.2
2019-01-03T02:49:16.587Z,74.2
2019-01-03T02:50:15.860Z,74.5
2019-01-03T02:51:15.925Z,74.3
2019-01-03T02:52:16.194Z,74.5
2019-01-03T02:53:16.461Z,74.5
2019-01-03T02:54:16.727Z,74.9
2019-01-03T02:55:16.007Z,75.2
2019-01-03T02:56:16.271Z,74.8
2019-01-03T02:57:16.570Z,74.8
2019-01-03T02:58:16.853Z,75.0
2019-01-03T02:59:16.117Z,75.0
2019-01-03T03:00:16.404Z,74.8
2019-01-03T03:01:16.438Z,75.0
2019-01-03T03:02:16.711Z,74.8
2019-01-03T03:03:15.983Z,75.0
2019-01-03T03:04:16.257Z,75.5
2019-01-03T03:05:16.514Z,74.9
2019-01-03T03:06:16.775Z,75.2
2019-01-03T03:07:16.046Z,76.1
2019-01-03T03:08:16.318Z,75.6
2019-01-03T03:09:16.584Z,75.5
2019-01-03T03:10:15.872Z,75.4
2019-01-03T03:11:15.893Z,75.8
2019-01-03T03:12:16.156Z,76.0
2019-01-03T03:13:16.414Z,76.0
2019-01-03T03:14:16.677Z,75.8
2019-01-03T03:15:15.942Z,75.8
2019-01-03T03:16:16.232Z,75.3
2019-01-03T03:17:16.514Z,76.0
2019-01-03T03:18:16.776Z,75.8
2019-01-03T03:19:16.037Z,76.0
2019-01-03T03:20:16.308Z,76.1
2019-01-03T03:21:16.570Z,76.0
2019-01-03T03:22:15.845Z,76.2
2019-01-03T03:23:16.107Z,75.8
2019-01-03T03:24:16.384Z,76.1
2019-01-03T03:25:16.975Z,76.2
2019-01-03T03:26:16.244Z,76.2
2019-01-03T03:27:16.534Z,76.3
2019-01-03T03:28:16.799Z,76.2
2019-01-03T03:29:16.072Z,76.5
2019-01-03T03:30:16.354Z,76.7
2019-01-03T03:31:16.446Z,76.2
2019-01-03T03:32:16.728Z,76.3
2019-01-03T03:33:16.017Z,77.0
2019-01-03T03:34:16.293Z,76.8
2019-01-03T03:35:16.565Z,76.3
2019-01-03T03:36:16.826Z,76.2
2019-01-03T03:37:16.091Z,76.3
2019-01-03T03:38:16.354Z,76.7
2019-01-03T03:39:16.650Z,76.4
2019-01-03T03:40:15.937Z,76.4
2019-01-03T03:41:15.983Z,76.7
2019-01-03T03:42:16.255Z,76.2
2019-01-03T03:43:16.517Z,76.3
2019-01-03T03:44:16.805Z,76.5
2019-01-03T03:45:16.075Z,77.0
2019-01-03T03:46:16.349Z,76.3
2019-01-03T03:47:16.608Z,76.8
2019-01-03T03:48:15.864Z,76.9
2019-01-03T03:49:16.127Z,77.0
2019-01-03T03:50:16.408Z,76.8
2019-01-03T03:51:16.463Z,76.6
2019-01-03T03:52:16.726Z,76.4
2019-01-03T03:53:15.989Z,76.4
2019-01-03T03:54:16.552Z,76.5
2019-01-03T03:55:16.824Z,76.5
2019-01-03T03:56:16.089Z,76.6
2019-01-03T03:57:16.363Z,76.5
2019-01-03T03:58:16.641Z,76.7
2019-01-03T03:59:15.916Z,76.7
2019-01-03T04:00:16.197Z,76.7
2019-01-03T04:01:16.247Z,76.7
2019-01-03T04:02:16.532Z,76.7
2019-01-03T04:03:16.800Z,76.7
2019-01-03T04:04:16.074Z,76.8
2019-01-03T04:05:16.341Z,76.9
2019-01-03T04:06:16.617Z,76.8
2019-01-03T04:07:15.890Z,76.9
2019-01-03T04:08:16.156Z,77.2
2019-01-03T04:09:16.423Z,77.0
2019-01-03T04:10:16.692Z,76.9
2019-01-03T04:11:16.747Z,77.1
2019-01-03T04:12:16.013Z,77.3
2019-01-03T04:13:16.297Z,77.7
2019-01-03T04:14:16.562Z,77.6
2019-01-03T04:15:16.832Z,77.2
2019-01-03T04:16:16.104Z,77.3
2019-01-03T04:17:16.374Z,78.2
2019-01-03T04:18:16.650Z,78.1
2019-01-03T04:19:15.911Z,77.9
2019-01-03T04:20:16.185Z,77.9
2019-01-03T04:21:16.225Z,78.2
2019-01-03T04:22:16.495Z,78.1
2019-01-03T04:23:16.755Z,78.0
2019-01-03T04:24:16.029Z,78.2
2019-01-03T04:25:16.295Z,78.2
2019-01-03T04:26:16.578Z,78.3
2019-01-03T04:27:15.842Z,77.8
2019-01-03T04:28:16.101Z,78.1
2019-01-03T04:29:16.375Z,78.1
2019-01-03T04:30:16.671Z,78.2
2019-01-03T04:31:16.746Z,78.4
2019-01-03T04:32:16.014Z,78.3
2019-01-03T04:33:16.286Z,78.5
2019-01-03T04:34:16.553Z,78.6
2019-01-03T04:35:16.827Z,78.7
2019-01-03T04:36:16.092Z,78.6
2019-01-03T04:37:16.362Z,78.4
2019-01-03T04:38:16.618Z,78.3
2019-01-03T04:39:15.892Z,78.5
2019-01-03T04:40:16.150Z,78.6
2019-01-03T04:41:16.203Z,78.8
2019-01-03T04:42:16.492Z,78.5
2019-01-03T04:43:16.780Z,78.6
2019-01-03T04:44:16.040Z,78.6
2019-01-03T04:45:16.325Z,79.4
2019-01-03T04:46:16.593Z,79.1
2019-01-03T04:47:15.857Z,79.1
2019-01-03T04:48:16.123Z,78.8
2019-01-03T04:49:16.387Z,79.3
2019-01-03T04:50:16.664Z,79.3
2019-01-03T04:51:16.732Z,79.2
2019-01-03T04:52:16.000Z,79.2
2019-01-03T04:53:16.267Z,79.5
2019-01-03T04:54:16.553Z,79.5
2019-01-03T04:55:16.830Z,79.5
2019-01-03T04:56:16.108Z,79.4
2019-01-03T04:57:16.381Z,79.6
2019-01-03T04:58:16.657Z,79.7
2019-01-03T04:59:15.926Z,79.8
2019-01-03T05:00:16.243Z,79.5
2019-01-03T05:01:16.260Z,79.8
2019-01-03T05:02:16.529Z,79.8
2019-01-03T05:03:16.796Z,79.8
2019-01-03T05:04:16.064Z,79.8
2019-01-03T05:05:16.389Z,80.2
2019-01-03T05:06:16.660Z,80.0
2019-01-03T05:07:15.939Z,80.5
2019-01-03T05:08:16.236Z,80.5
2019-01-03T05:09:16.509Z,80.2
2019-01-03T05:10:16.788Z,80.0
2019-01-03T05:11:16.839Z,80.2
2019-01-03T05:12:16.121Z,80.7
2019-01-03T05:13:16.414Z,81.0
2019-01-03T05:14:16.694Z,80.8
2019-01-03T05:15:15.968Z,80.5
2019-01-03T05:16:16.245Z,80.3
2019-01-03T05:17:16.517Z,80.4
2019-01-03T05:18:16.796Z,80.5
2019-01-03T05:19:16.060Z,80.9
2019-01-03T05:20:16.345Z,81.0
2019-01-03T05:21:16.372Z,81.4
2019-01-03T05:22:16.639Z,81.2
2019-01-03T05:23:15.898Z,81.2
2019-01-03T05:24:16.166Z,81.2
2019-01-03T05:25:16.446Z,80.9
2019-01-03T05:26:16.733Z,80.9
2019-01-03T05:27:16.000Z,81.3
2019-01-03T05:28:16.280Z,81.7
2019-01-03T05:29:16.549Z,81.5
2019-01-03T05:30:18.626Z,81.3
2019-01-03T05:31:15.858Z,81.5
2019-01-03T05:32:16.126Z,81.6
2019-01-03T05:33:16.383Z,81.5
2019-01-03T05:34:16.655Z,81.4
2019-01-03T05:35:15.945Z,81.0
2019-01-03T05:36:16.211Z,81.2
2019-01-03T05:37:16.574Z,81.2
2019-01-03T05:38:15.841Z,81.5
2019-01-03T05:39:16.115Z,81.5
2019-01-03T05:40:16.427Z,81.5
2019-01-03T05:41:16.438Z,81.3
2019-01-03T05:42:16.711Z,81.3
2019-01-03T05:43:15.998Z,81.2
2019-01-03T05:44:16.271Z,81.2
2019-01-03T05:45:16.554Z,81.3
2019-01-03T05:46:16.831Z,81.5
2019-01-03T05:47:16.102Z,81.5
2019-01-03T05:48:16.374Z,81.9
2019-01-03T05:49:16.637Z,81.9
2019-01-03T05:50:15.897Z,81.7
2019-01-03T05:51:15.943Z,81.4
2019-01-03T05:52:16.237Z,81.5
2019-01-03T05:53:16.504Z,81.4
2019-01-03T05:54:16.778Z,81.5
2019-01-03T05:55:16.060Z,81.5
2019-01-03T05:56:16.328Z,81.7
2019-01-03T05:57:16.604Z,81.8
2019-01-03T05:58:15.876Z,81.8
2019-01-03T05:59:16.150Z,81.8
2019-01-03T06:00:16.448Z,81.6
2019-01-03T06:01:16.479Z,81.5
2019-01-03T06:02:16.746Z,81.8
2019-01-03T06:03:16.016Z,81.8
2019-01-03T06:04:16.286Z,81.7
2019-01-03T06:05:16.560Z,81.9
2019-01-03T06:06:16.823Z,82.2
2019-01-03T06:07:16.089Z,82.3
2019-01-03T06:08:16.353Z,82.1
2019-01-03T06:09:16.621Z,82.0
2019-01-03T06:10:15.908Z,82.0
2019-01-03T06:11:15.944Z,82.0
2019-01-03T06:12:16.207Z,82.2
2019-01-03T06:13:16.483Z,82.4
2019-01-03T06:14:16.751Z,82.2
2019-01-03T06:15:16.015Z,82.2
2019-01-03T06:16:16.276Z,82.2
2019-01-03T06:17:16.552Z,82.5
2019-01-03T06:18:16.821Z,82.4
2019-01-03T06:19:16.089Z,82.5
2019-01-03T06:20:16.366Z,82.6
2019-01-03T06:21:16.409Z,82.6
2019-01-03T06:22:16.674Z,82.8
2019-01-03T06:23:15.930Z,82.5
2019-01-03T06:24:16.202Z,82.3
2019-01-03T06:25:16.484Z,82.7
2019-01-03T06:26:16.760Z,82.5
2019-01-03T06:27:16.024Z,82.3
2019-01-03T06:28:16.281Z,82.3
2019-01-03T06:29:16.561Z,82.4
2019-01-03T06:30:16.839Z,82.5
2019-01-03T06:31:15.883Z,82.8
2019-01-03T06:32:16.146Z,82.8
2019-01-03T06:33:16.404Z,83.0
2019-01-03T06:34:16.669Z,82.8
2019-01-03T06:35:16.326Z,83.0
2019-01-03T06:36:16.630Z,82.8
2019-01-03T06:37:15.897Z,82.8
2019-01-03T06:38:16.160Z,82.7
2019-01-03T06:39:16.423Z,82.9
2019-01-03T06:40:16.694Z,82.8
2019-01-03T06:41:16.753Z,82.7
2019-01-03T06:42:16.017Z,82.7
2019-01-03T06:43:16.277Z,82.7
2019-01-03T06:44:16.540Z,82.4
2019-01-03T06:45:16.816Z,82.4
2019-01-03T06:46:16.077Z,82.3
2019-01-03T06:47:16.335Z,82.0
2019-01-03T06:48:20.311Z,82.0
2019-01-03T06:49:16.613Z,82.3
2019-01-03T06:50:15.889Z,82.2
2019-01-03T06:51:15.930Z,82.2
2019-01-03T06:52:16.198Z,82.4
2019-01-03T06:53:16.461Z,82.3
2019-01-03T06:54:16.723Z,82.1
2019-01-03T06:55:15.980Z,82.2
2019-01-03T06:56:16.242Z,82.5
2019-01-03T06:57:16.508Z,82.6
2019-01-03T06:58:16.777Z,82.3
2019-01-03T06:59:16.119Z,82.4
2019-01-03T07:00:16.405Z,82.5
2019-01-03T07:01:16.453Z,82.2
2019-01-03T07:02:16.717Z,82.2
2019-01-03T07:03:15.982Z,82.2
2019-01-03T07:04:16.247Z,82.5
2019-01-03T07:05:16.507Z,82.6
2019-01-03T07:06:17.048Z,82.5
2019-01-03T07:07:16.320Z,82.4
2019-01-03T07:08:16.582Z,82.4
2019-01-03T07:09:15.859Z,82.8
2019-01-03T07:10:16.132Z,82.7
2019-01-03T07:11:22.237Z,82.9
2019-01-03T07:12:16.518Z,82.5
2019-01-03T07:13:16.782Z,82.6
2019-01-03T07:14:16.050Z,82.6
2019-01-03T07:15:16.315Z,82.7
2019-01-03T07:16:16.590Z,82.8
2019-01-03T07:17:15.861Z,82.8
2019-01-03T07:18:16.128Z,82.8
2019-01-03T07:19:16.385Z,83.1
2019-01-03T07:20:16.657Z,83.2
2019-01-03T07:21:16.707Z,83.0
2019-01-03T07:22:15.977Z,83.0
2019-01-03T07:23:16.235Z,83.1
2019-01-03T07:24:16.510Z,83.0
2019-01-03T07:25:16.782Z,83.2
2019-01-03T07:26:16.042Z,83.2
2019-01-03T07:27:16.302Z,83.3
2019-01-03T07:28:16.579Z,83.4
2019-01-03T07:29:15.845Z,83.4
2019-01-03T07:30:16.135Z,83.3
2019-01-03T07:31:16.159Z,83.1
2019-01-03T07:32:16.437Z,82.9
2019-01-03T07:33:16.698Z,83.2
2019-01-03T07:34:15.962Z,83.4
2019-01-03T07:35:16.218Z,83.6
2019-01-03T07:36:16.480Z,83.5
2019-01-03T07:37:17.064Z,83.8
2019-01-03T07:38:16.332Z,83.4
2019-01-03T07:39:16.601Z,83.3
2019-01-03T07:40:15.883Z,83.5
2019-01-03T07:41:15.905Z,83.7
2019-01-03T07:42:16.173Z,83.7
2019-01-03T07:43:16.440Z,83.6
2019-01-03T07:44:16.706Z,83.8
2019-01-03T07:45:15.973Z,83.7
2019-01-03T07:46:16.227Z,84.1
2019-01-03T07:47:16.488Z,84.0
2019-01-03T07:48:16.764Z,84.0
2019-01-03T07:49:16.025Z,84.2
2019-01-03T07:50:16.321Z,84.3
2019-01-03T07:51:16.342Z,84.9
2019-01-03T07:52:16.622Z,84.9
2019-01-03T07:53:15.881Z,84.7
2019-01-03T07:54:16.152Z,85.0
2019-01-03T07:55:16.435Z,85.0
2019-01-03T07:56:16.707Z,85.0
2019-01-03T07:57:15.973Z,85.7
2019-01-03T07:58:16.255Z,85.7
2019-01-03T07:59:16.532Z,85.7
2019-01-03T08:00:16.826Z,85.6
2019-01-03T08:01:15.869Z,86.0
2019-01-03T08:02:16.150Z,86.1
2019-01-03T08:03:16.418Z,86.0
2019-01-03T08:04:16.703Z,86.1
2019-01-03T08:05:15.977Z,86.1
2019-01-03T08:06:16.243Z,86.4
2019-01-03T08:07:16.503Z,86.6
2019-01-03T08:08:16.762Z,86.6
2019-01-03T08:09:16.032Z,86.9
2019-01-03T08:10:16.300Z,87.0
2019-01-03T08:11:16.366Z,86.7
2019-01-03T08:12:16.634Z,86.7
2019-01-03T08:13:15.899Z,87.0
2019-01-03T08:14:16.168Z,87.0
2019-01-03T08:15:16.507Z,86.5
2019-01-03T08:16:16.765Z,86.7
2019-01-03T08:17:16.035Z,87.0
2019-01-03T08:18:16.307Z,86.8
2019-01-03T08:19:16.571Z,86.9
2019-01-03T08:20:15.844Z,86.9
2019-01-03T08:21:15.902Z,86.5
2019-01-03T08:22:16.178Z,86.8
2019-01-03T08:23:16.449Z,86.7
2019-01-03T08:24:16.705Z,86.2
2019-01-03T08:25:15.977Z,86.0
2019-01-03T08:26:16.240Z,86.4
2019-01-03T08:27:16.516Z,85.9
2019-01-03T08:28:16.784Z,85.6
2019-01-03T08:29:16.057Z,85.5
2019-01-03T08:30:16.338Z,85.1
2019-01-03T08:31:16.355Z,84.7
2019-01-03T08:32:16.624Z,84.2
2019-01-03T08:33:15.886Z,84.4
2019-01-03T08:34:16.142Z,84.1
2019-01-03T08:35:16.405Z,84.1
2019-01-03T08:36:16.668Z,83.9
2019-01-03T08:37:15.939Z,83.8
2019-01-03T08:38:16.211Z,83.8
2019-01-03T08:39:16.466Z,83.8
2019-01-03T08:40:16.738Z,84.0
2019-01-03T08:41:16.781Z,84.3
2019-01-03T08:42:16.047Z,84.3
2019-01-03T08:43:16.319Z,83.5
2019-01-03T08:44:16.581Z,83.5
2019-01-03T08:45:15.845Z,83.5
2019-01-03T08:46:16.106Z,83.2
2019-01-03T08:47:16.372Z,83.2
2019-01-03T08:48:16.650Z,83.6
2019-01-03T08:49:15.923Z,83.3
2019-01-03T08:50:16.198Z,83.2
2019-01-03T08:51:16.262Z,83.4
2019-01-03T08:52:16.537Z,83.3
2019-01-03T08:53:16.799Z,83.8
2019-01-03T08:54:16.063Z,83.8
2019-01-03T08:55:16.338Z,83.4
2019-01-03T08:56:16.610Z,82.9
2019-01-03T08:57:15.867Z,83.1
2019-01-03T08:58:16.139Z,82.8
2019-01-03T08:59:16.408Z,82.9
2019-01-03T09:00:16.667Z,82.7
2019-01-03T09:01:16.721Z,82.2
2019-01-03T09:02:15.976Z,82.1
2019-01-03T09:03:16.240Z,82.3
2019-01-03T09:04:16.506Z,82.1
2019-01-03T09:05:16.766Z,82.2
2019-01-03T09:06:16.037Z,81.7
2019-01-03T09:07:16.300Z,81.8
2019-01-03T09:08:16.571Z,82.0
2019-01-03T09:09:16.868Z,82.2
2019-01-03T09:10:16.149Z,82.2
2019-01-03T09:11:16.192Z,81.8
2019-01-03T09:12:16.464Z,81.7
2019-01-03T09:13:17.119Z,81.7
2019-01-03T09:14:16.381Z,81.6
2019-01-03T09:15:16.672Z,81.6
2019-01-03T09:16:15.944Z,81.3
2019-01-03T09:17:16.209Z,80.8
2019-01-03T09:18:16.468Z,81.4
2019-01-03T09:19:16.733Z,81.5
2019-01-03T09:20:16.000Z,81.8
2019-01-03T09:21:16.045Z,81.5
2019-01-03T09:22:16.315Z,81.2
2019-01-03T09:23:16.572Z,81.0
2019-01-03T09:24:15.840Z,81.1
2019-01-03T09:25:16.109Z,81.3
2019-01-03T09:26:16.375Z,80.9
2019-01-03T09:27:16.637Z,81.0
2019-01-03T09:28:15.902Z,80.8
2019-01-03T09:29:16.179Z,80.2
2019-01-03T09:30:16.456Z,80.2
2019-01-03T09:31:16.515Z,80.0
2019-01-03T09:32:16.781Z,79.6
2019-01-03T09:33:16.051Z,79.5
2019-01-03T09:34:16.311Z,79.6
2019-01-03T09:35:16.584Z,79.3
2019-01-03T09:36:15.854Z,78.9
2019-01-03T09:37:16.115Z,78.8
2019-01-03T09:38:16.381Z,79.3
2019-01-03T09:39:16.647Z,79.4
2019-01-03T09:40:15.926Z,79.1
2019-01-03T09:41:15.950Z,79.1
2019-01-03T09:42:16.215Z,79.0
2019-01-03T09:43:16.477Z,78.6
2019-01-03T09:44:17.018Z,78.5
2019-01-03T09:45:16.417Z,78.5
2019-01-03T09:46:16.730Z,78.6
2019-01-03T09:47:16.040Z,77.8
2019-01-03T09:48:16.363Z,78.4
2019-01-03T09:49:16.679Z,78.2
2019-01-03T09:50:15.986Z,78.0
2019-01-03T09:51:16.041Z,78.5
2019-01-03T09:52:16.369Z,77.8
2019-01-03T09:53:16.687Z,77.2
2019-01-03T09:54:15.975Z,77.5
2019-01-03T09:55:16.307Z,77.0
2019-01-03T09:56:16.608Z,76.8
2019-01-03T09:57:15.923Z,76.6
2019-01-03T09:58:16.218Z,76.8
2019-01-03T09:59:16.519Z,77.3
2019-01-03T10:00:16.858Z,77.1
2019-01-03T10:01:15.908Z,77.2
2019-01-03T10:02:16.215Z,77.2
2019-01-03T10:03:16.547Z,77.9
2019-01-03T10:04:17.108Z,77.8
2019-01-03T10:05:16.411Z,78.2
2019-01-03T10:06:16.736Z,77.5
2019-01-03T10:07:16.015Z,77.0
2019-01-03T10:08:19.888Z,76.7
2019-01-03T10:09:16.202Z,76.0
2019-01-03T10:10:16.505Z,76.2
2019-01-03T10:11:16.548Z,76.6
2019-01-03T10:12:16.885Z,76.7
2019-01-03T10:13:16.199Z,76.9
2019-01-03T10:14:16.674Z,76.9
2019-01-03T10:15:15.973Z,76.3
2019-01-03T10:16:16.274Z,76.0
2019-01-03T10:17:16.599Z,75.7
2019-01-03T10:18:15.889Z,75.5
2019-01-03T10:19:16.218Z,75.4
2019-01-03T10:20:16.531Z,74.8
2019-01-03T10:21:16.611Z,74.4
2019-01-03T10:22:15.952Z,74.8
2019-01-03T10:23:16.284Z,75.7
2019-01-03T10:24:16.593Z,74.8
2019-01-03T10:25:15.895Z,74.5
2019-01-03T10:26:16.208Z,74.2
2019-01-03T10:27:16.554Z,74.3
2019-01-03T10:28:16.871Z,74.3
2019-01-03T10:29:16.175Z,74.2
2019-01-03T10:30:16.492Z,74.3
2019-01-03T10:31:16.548Z,74.2
2019-01-03T10:32:16.855Z,73.8
2019-01-03T10:33:16.162Z,74.5
2019-01-03T10:34:16.418Z,74.8
2019-01-03T10:35:16.762Z,73.8
2019-01-03T10:36:16.092Z,73.5
2019-01-03T10:37:16.390Z,73.0
2019-01-03T10:38:21.178Z,73.5
2019-01-03T10:39:16.510Z,73.6
2019-01-03T10:40:16.793Z,72.2
2019-01-03T10:41:15.882Z,73.0
2019-01-03T10:42:17.583Z,72.7
2019-01-03T10:43:15.908Z,72.8
2019-01-03T10:44:16.205Z,73.1
2019-01-03T10:45:16.552Z,73.2
2019-01-03T10:46:16.840Z,72.7
2019-01-03T10:47:16.151Z,72.7
2019-01-03T10:48:16.452Z,72.2
2019-01-03T10:49:16.763Z,72.1
2019-01-03T10:50:16.074Z,71.8
2019-01-03T10:51:16.117Z,71.8
2019-01-03T10:52:16.435Z,72.2
2019-01-03T10:53:16.739Z,71.7
2019-01-03T10:54:16.050Z,72.3
2019-01-03T10:55:16.347Z,72.4
2019-01-03T10:56:16.643Z,72.7
2019-01-03T10:57:15.925Z,72.5
2019-01-03T10:58:16.207Z,72.7
2019-01-03T10:59:16.488Z,72.4
2019-01-03T11:00:16.831Z,71.9
2019-01-03T11:01:16.858Z,72.0
2019-01-03T11:02:16.150Z,71.6
2019-01-03T11:03:16.441Z,72.2
2019-01-03T11:04:16.760Z,71.2
2019-01-03T11:05:16.121Z,70.8
2019-01-03T11:06:16.742Z,71.2
2019-01-03T11:07:16.074Z,71.8
2019-01-03T11:08:16.400Z,71.6
2019-01-03T11:09:16.712Z,71.8
2019-01-03T11:10:16.022Z,71.3
2019-01-03T11:11:16.080Z,71.1
2019-01-03T11:12:16.403Z,72.1
2019-01-03T11:13:16.704Z,72.0
2019-01-03T11:14:16.012Z,72.3
2019-01-03T11:15:16.317Z,72.0
2019-01-03T11:16:16.977Z,71.6
2019-01-03T11:17:16.280Z,71.2
2019-01-03T11:18:16.585Z,71.4
2019-01-03T11:19:15.902Z,71.4
2019-01-03T11:20:16.239Z,72.0
2019-01-03T11:21:16.265Z,71.4
2019-01-03T11:22:16.576Z,71.3
2019-01-03T11:23:15.904Z,72.1
2019-01-03T11:24:16.243Z,71.4
2019-01-03T11:25:16.508Z,71.4
2019-01-03T11:26:16.799Z,71.8
2019-01-03T11:27:16.116Z,71.1
2019-01-03T11:28:16.437Z,71.2
2019-01-03T11:29:16.746Z,70.9
2019-01-03T11:30:16.117Z,71.3
2019-01-03T11:31:16.108Z,71.2
2019-01-03T11:32:16.405Z,71.0
2019-01-03T11:33:16.689Z,71.0
2019-01-03T11:34:15.994Z,70.9
2019-01-03T11:35:16.291Z,71.1
2019-01-03T11:36:16.579Z,70.9
2019-01-03T11:37:15.897Z,70.7
2019-01-03T11:38:16.171Z,70.5
2019-01-03T11:39:16.461Z,70.4
2019-01-03T11:40:16.793Z,70.8
2019-01-03T11:41:16.846Z,70.8
2019-01-03T11:42:16.177Z,70.2
2019-01-03T11:43:16.471Z,70.5
2019-01-03T11:44:16.784Z,71.4
2019-01-03T11:45:16.099Z,71.5
2019-01-03T11:46:16.393Z,71.5
2019-01-03T11:47:16.701Z,71.4
2019-01-03T11:48:15.992Z,71.3
2019-01-03T11:49:16.325Z,71.7
2019-01-03T11:50:16.641Z,71.8
2019-01-03T11:51:16.676Z,71.6
2019-01-03T11:52:15.965Z,71.1
2019-01-03T11:53:16.273Z,71.5
2019-01-03T11:54:16.606Z,71.8
2019-01-03T11:55:15.932Z,71.5
2019-01-03T11:56:16.216Z,71.7
2019-01-03T11:57:16.545Z,71.8
2019-01-03T11:58:16.879Z,71.2
2019-01-03T11:59:16.244Z,71.8
2019-01-03T12:00:16.545Z,71.2
2019-01-03T12:01:16.611Z,70.7
2019-01-03T12:02:15.895Z,70.8
2019-01-03T12:03:16.173Z,70.9
2019-01-03T12:04:16.483Z,71.8
2019-01-03T12:05:16.792Z,72.2
2019-01-03T12:06:16.101Z,72.1
2019-01-03T12:07:16.412Z,72.5
2019-01-03T12:08:16.695Z,72.4
2019-01-03T12:09:15.996Z,72.3
2019-01-03T12:10:16.291Z,72.3
2019-01-03T12:11:16.317Z,72.1
2019-01-03T12:12:16.600Z,72.2
2019-01-03T12:13:15.919Z,72.8
2019-01-03T12:14:16.217Z,72.8
2019-01-03T12:15:16.530Z,72.4
2019-01-03T12:16:16.885Z,72.4
2019-01-03T12:17:16.203Z,72.4
2019-01-03T12:18:16.516Z,72.5
2019-01-03T12:19:16.792Z,72.4
2019-01-03T12:20:16.112Z,72.6
2019-01-03T12:21:16.150Z,73.2
2019-01-03T12:22:16.447Z,73.7
2019-01-03T12:23:16.789Z,72.8
2019-01-03T12:24:16.088Z,72.7
2019-01-03T12:25:16.395Z,73.0
2019-01-03T12:26:16.687Z,73.0
2019-01-03T12:27:15.992Z,73.1
2019-01-03T12:28:16.297Z,72.7
2019-01-03T12:29:16.598Z,72.8
2019-01-03T12:30:15.912Z,72.7
2019-01-03T12:31:15.984Z,72.8
2019-01-03T12:32:16.273Z,72.8
2019-01-03T12:33:16.582Z,73.2
2019-01-03T12:34:15.881Z,73.6
2019-01-03T12:35:16.194Z,73.5
2019-01-03T12:36:16.479Z,73.3
2019-01-03T12:37:16.783Z,73.6
2019-01-03T12:38:16.086Z,73.2
2019-01-03T12:39:16.384Z,73.2
2019-01-03T12:40:16.694Z,73.2
2019-01-03T12:41:16.764Z,72.9
2019-01-03T12:42:16.061Z,72.8
2019-01-03T12:43:16.383Z,72.8
2019-01-03T12:44:16.719Z,72.9
2019-01-03T12:45:16.022Z,72.8
2019-01-03T12:46:16.356Z,73.3
2019-01-03T12:47:16.666Z,73.0
2019-01-03T12:48:15.969Z,72.8
2019-01-03T12:49:16.263Z,73.3
2019-01-03T12:50:16.579Z,73.2
2019-01-03T12:51:16.645Z,73.8
2019-01-03T12:52:15.948Z,73.8
2019-01-03T12:53:16.250Z,74.0
2019-01-03T12:54:16.548Z,73.8
2019-01-03T12:55:16.858Z,73.8
2019-01-03T12:56:16.188Z,73.9
2019-01-03T12:57:16.516Z,74.4
2019-01-03T12:58:16.842Z,74.7
2019-01-03T12:59:16.143Z,74.8
2019-01-03T13:00:16.452Z,74.3
2019-01-03T13:01:16.509Z,74.3
2019-01-03T13:02:16.834Z,74.2
2019-01-03T13:03:16.158Z,74.8
2019-01-03T13:04:16.463Z,74.7
2019-01-03T13:05:16.765Z,74.8
2019-01-03T13:06:21.316Z,75.2
2019-01-03T13:07:16.598Z,75.0
2019-01-03T13:08:15.895Z,75.0
2019-01-03T13:09:16.190Z,74.9
2019-01-03T13:10:16.482Z,75.1
2019-01-03T13:11:16.588Z,75.1
2019-01-03T13:12:15.888Z,75.3
2019-01-03T13:13:16.210Z,75.6
2019-01-03T13:14:16.519Z,75.8
2019-01-03T13:15:16.811Z,75.7
2019-01-03T13:16:16.094Z,75.6
2019-01-03T13:17:16.417Z,75.6
2019-01-03T13:18:16.727Z,75.8